Time;durP1;ratioP1;P1;durP2;ratioP2;P2;SDS_P1;SDS_P2;PMS_P1;PMS_P2;Temp;Humidity;BMP_temperature;BMP_pressure;BME280_temperature;BME280_humidity;BME280_pressure;Samples;Min_cycle;Max_cycle;Signal;HPM_P1;HPM_P2
2023/01/29 00:01:05;;;;;;;1999.90;999.90;;;;;;;0.58;100.00;95570.38;5065795;28;20198;-65
2023/01/29 00:03:33;;;;;;;1999.90;999.90;;;;;;;0.59;100.00;95567.38;5066183;28;20389;-64
2023/01/29 00:06:03;;;;;;;1999.90;999.90;;;;;;;0.63;100.00;95570.94;5065489;28;20173;-64
2023/01/29 00:08:29;;;;;;;1999.90;999.90;;;;;;;0.69;100.00;95569.59;5065990;28;20172;-64
2023/01/29 00:11:04;;;;;;;1999.90;999.90;;;;;;;0.72;100.00;95571.59;5065496;28;20176;-64
2023/01/29 00:13:29;;;;;;;1999.90;999.90;;;;;;;0.64;100.00;95575.19;5065986;28;20241;-64
2023/01/29 00:15:56;;;;;;;1999.90;999.90;;;;;;;0.61;100.00;95567.78;5065436;28;20169;-64
2023/01/29 00:18:22;;;;;;;1999.90;999.90;;;;;;;0.60;100.00;95574.31;5065668;28;20176;-64
2023/01/29 00:20:48;;;;;;;1999.90;999.90;;;;;;;0.62;100.00;95563.97;5065101;28;20197;-64
2023/01/29 00:23:14;;;;;;;1999.90;999.90;;;;;;;0.58;100.00;95571.16;5065291;28;20176;-63
2023/01/29 00:25:40;;;;;;;1999.90;999.90;;;;;;;0.52;100.00;95569.81;5065115;28;20205;-63
2023/01/29 00:28:06;;;;;;;1999.90;999.90;;;;;;;0.54;100.00;95558.75;5065085;28;20236;-64
2023/01/29 00:30:31;;;;;;;1999.90;999.90;;;;;;;0.42;100.00;95562.19;5065595;28;20340;-64
2023/01/29 00:32:57;;;;;;;1999.90;999.90;;;;;;;0.36;100.00;95552.00;5065135;28;20478;-64
2023/01/29 00:35:22;;;;;;;1999.90;999.90;;;;;;;0.39;100.00;95546.75;5064936;28;20176;-63
2023/01/29 00:37:48;;;;;;;1999.90;999.90;;;;;;;0.27;100.00;95536.00;5064911;28;20197;-65
2023/01/29 00:40:13;;;;;;;1999.90;999.90;;;;;;;0.38;100.00;95522.91;5064844;28;20265;-65
2023/01/29 00:45:23;;;;;;;1999.90;999.90;;;;;;;0.24;100.00;95522.44;5065694;28;20159;-65
2023/01/29 00:47:48;;;;;;;1999.90;999.90;;;;;;;0.14;100.00;95517.53;5064633;28;20162;-62
2023/01/29 00:50:13;;;;;;;1999.90;999.90;;;;;;;0.21;100.00;95504.34;5064319;28;20226;-64
2023/01/29 00:52:42;;;;;;;1999.90;999.90;;;;;;;0.16;100.00;95491.94;5065129;28;20169;-64
2023/01/29 00:55:09;;;;;;;1999.90;999.90;;;;;;;0.17;100.00;95488.13;5065314;28;20163;-64
2023/01/29 00:57:35;;;;;;;1999.90;999.90;;;;;;;0.10;100.00;95485.19;5065021;28;20168;-64
2023/01/29 01:00:03;;;;;;;1999.90;999.90;;;;;;;0.19;100.00;95483.22;5064423;28;20223;-64
2023/01/29 01:05:16;;;;;;;1999.90;999.90;;;;;;;0.11;100.00;95486.78;5065466;28;20219;-64
2023/01/29 01:07:46;;;;;;;1999.90;999.90;;;;;;;0.07;100.00;95480.50;5064270;28;20534;-64
2023/01/29 01:10:21;;;;;;;1999.90;999.90;;;;;;;0.11;100.00;95475.25;5064868;28;20171;-65
2023/01/29 01:13:05;;;;;;;1999.90;999.90;;;;;;;0.08;100.00;95476.72;5064885;28;20180;-66
2023/01/29 01:15:34;;;;;;;1999.90;999.90;;;;;;;-0.05;100.00;95483.19;5064125;28;20226;-65
2023/01/29 01:18:00;;;;;;;1999.90;999.90;;;;;;;-0.01;100.00;95478.72;5064144;28;20199;-64
2023/01/29 01:20:28;;;;;;;1999.90;999.90;;;;;;;-0.02;100.00;95491.34;5064071;28;20216;-65
2023/01/29 01:22:54;;;;;;;1999.90;999.90;;;;;;;0.06;100.00;95500.41;5064044;28;20203;-65
2023/01/29 01:25:20;;;;;;;1999.90;999.90;;;;;;;0.03;100.00;95504.53;5063971;28;20178;-65
2023/01/29 01:27:45;;;;;;;1999.90;999.90;;;;;;;0.05;100.00;95504.22;5064654;28;20226;-64
2023/01/29 01:30:13;;;;;;;1999.90;999.90;;;;;;;-0.08;100.00;95507.97;5063980;28;20203;-61
2023/01/29 01:32:39;;;;;;;1999.90;999.90;;;;;;;-0.02;100.00;95498.63;5064496;28;20245;-64
2023/01/29 01:35:06;;;;;;;1999.90;999.90;;;;;;;-0.06;100.00;95492.34;5064029;28;20218;-63
2023/01/29 01:37:31;;;;;;;1999.90;999.90;;;;;;;-0.01;100.00;95494.81;5063816;28;20172;-63
2023/01/29 01:39:57;;;;;;;1999.90;999.90;;;;;;;-0.02;100.00;95503.97;5063957;28;20192;-63
2023/01/29 01:42:29;;;;;;;1999.90;999.90;;;;;;;-0.06;100.00;95505.75;5063811;28;20235;-64
2023/01/29 01:45:04;;;;;;;1999.90;999.90;;;;;;;0.03;100.00;95505.66;5064398;28;20182;-61
2023/01/29 01:47:35;;;;;;;1999.90;999.90;;;;;;;0.06;100.00;95505.78;5064136;28;20167;-61
2023/01/29 01:50:07;;;;;;;1999.90;999.90;;;;;;;0.10;100.00;95514.72;5063716;28;20296;-62
2023/01/29 01:52:35;;;;;;;1999.90;999.90;;;;;;;0.16;100.00;95509.91;5064262;28;20235;-63
2023/01/29 01:55:01;;;;;;;1999.90;999.90;;;;;;;0.03;100.00;95509.91;5063718;28;20359;-65
2023/01/29 01:57:30;;;;;;;1999.90;999.90;;;;;;;0.00;100.00;95520.53;5063813;28;20178;-66
2023/01/29 02:00:02;;;;;;;1999.90;999.90;;;;;;;0.04;100.00;95518.75;5064258;28;20390;-66
2023/01/29 02:10:44;;;;;;;1999.90;999.90;;;;;;;0.04;100.00;95553.66;5064315;28;20160;-63
2023/01/29 02:13:10;;;;;;;1999.90;999.90;;;;;;;0.06;100.00;95567.50;5064029;28;20206;-63
2023/01/29 02:15:36;;;;;;;1999.90;999.90;;;;;;;-0.03;100.00;95577.56;5063939;28;20163;-64
2023/01/29 02:18:02;;;;;;;1999.90;999.90;;;;;;;-0.06;100.00;95575.53;5063421;28;20168;-64
2023/01/29 02:20:30;;;;;;;1999.90;999.90;;;;;;;-0.12;100.00;95580.31;5063373;28;20256;-64
2023/01/29 02:23:14;;;;;;;1999.90;999.90;;;;;;;-0.05;100.00;95585.13;5063206;28;20191;-63
2023/01/29 02:25:49;;;;;;;1999.90;999.90;;;;;;;-0.01;100.00;95586.84;5063735;28;20353;-63
2023/01/29 02:28:39;;;;;;;1999.90;999.90;;;;;;;-0.08;100.00;95591.97;5063781;28;20167;-64
2023/01/29 02:31:23;;;;;;;1999.90;999.90;;;;;;;-0.04;100.00;95597.44;5063770;28;20239;-66
2023/01/29 02:34:01;;;;;;;1999.90;999.90;;;;;;;-0.11;100.00;95614.06;5063709;28;20169;-64
2023/01/29 02:36:35;;;;;;;1999.90;999.90;;;;;;;-0.10;100.00;95615.63;5063748;28;20175;-65
2023/01/29 02:39:13;;;;;;;1999.90;999.90;;;;;;;-0.07;100.00;95614.97;5064070;28;20202;-64
2023/01/29 02:41:51;;;;;;;1999.90;999.90;;;;;;;-0.11;100.00;95630.19;5063684;28;20203;-65
2023/01/29 02:44:29;;;;;;;1999.90;999.90;;;;;;;0.02;100.00;95633.69;5063267;28;20164;-66
2023/01/29 02:47:10;;;;;;;1999.90;999.90;;;;;;;-0.05;100.00;95649.53;5065440;28;20239;-65
2023/01/29 02:49:48;;;;;;;1999.90;999.90;;;;;;;-0.01;100.00;95645.09;5067187;28;20162;-70
2023/01/29 02:52:20;;;;;;;1999.90;999.90;;;;;;;0.00;100.00;95666.22;5070280;28;20187;-65
2023/01/29 02:54:56;;;;;;;1999.90;999.90;;;;;;;0.01;100.00;95664.34;5070458;28;20164;-66
2023/01/29 02:57:27;;;;;;;1999.90;999.90;;;;;;;0.02;100.00;95668.59;5070677;28;20168;-65
2023/01/29 03:00:01;;;;;;;1999.90;999.90;;;;;;;0.10;100.00;95673.09;5070143;28;20195;-65
2023/01/29 03:02:32;;;;;;;1999.90;999.90;;;;;;;-0.06;100.00;95675.56;5070733;28;20243;-65
2023/01/29 03:05:03;;;;;;;1999.90;999.90;;;;;;;0.00;100.00;95673.50;5070494;28;20173;-65
2023/01/29 03:07:43;;;;;;;1999.90;999.90;;;;;;;0.01;100.00;95669.69;5070430;28;20226;-64
2023/01/29 03:10:23;;;;;;;1999.90;999.90;;;;;;;0.03;100.00;95672.81;5070477;28;20168;-63
2023/01/29 03:12:54;;;;;;;1999.90;999.90;;;;;;;0.07;100.00;95675.66;5070414;28;20169;-63
2023/01/29 03:15:37;;;;;;;1999.90;999.90;;;;;;;0.09;100.00;95679.56;5070132;28;20170;-64
2023/01/29 03:18:11;;;;;;;1999.90;999.90;;;;;;;0.05;100.00;95684.03;5070031;28;20167;-63
2023/01/29 03:20:46;;;;;;;1999.90;999.90;;;;;;;-0.03;100.00;95692.94;5069807;28;20234;-63
2023/01/29 03:23:22;;;;;;;1999.90;999.90;;;;;;;-0.01;100.00;95704.13;5070173;28;20192;-62
2023/01/29 03:34:23;;;;;;;1999.90;999.90;;;;;;;0.07;100.00;95716.69;5087206;28;20338;-64
2023/01/29 03:37:02;;;;;;;1999.90;999.90;;;;;;;0.06;100.00;95717.78;5069928;28;20163;-64
2023/01/29 03:39:29;;;;;;;1999.90;999.90;;;;;;;0.12;100.00;95724.56;5069382;28;20192;-65
2023/01/29 03:42:39;;;;;;;1999.90;999.90;;;;;;;0.03;100.00;95731.88;5068868;28;20209;-65
2023/01/29 03:45:12;;;;;;;1999.90;999.90;;;;;;;0.04;100.00;95728.84;5069594;28;20235;-64
2023/01/29 03:47:58;;;;;;;1999.90;999.90;;;;;;;0.06;100.00;95719.72;5069396;28;20164;-65
2023/01/29 03:51:01;;;;;;;1999.90;999.90;;;;;;;0.12;100.00;95719.19;5069479;28;20220;-64
2023/01/29 03:53:26;;;;;;;1999.90;999.90;;;;;;;0.08;100.00;95722.84;5069000;28;20178;-64
2023/01/29 03:55:58;;;;;;;1999.90;999.90;;;;;;;0.11;100.00;95725.66;5069578;28;20199;-64
2023/01/29 03:58:41;;;;;;;1999.90;999.90;;;;;;;0.06;100.00;95723.16;5069411;28;20220;-66
2023/01/29 04:01:32;;;;;;;1999.90;999.90;;;;;;;0.04;100.00;95722.72;5069557;28;20209;-65
2023/01/29 04:04:26;;;;;;;1999.90;999.90;;;;;;;0.04;100.00;95712.00;5068954;28;20172;-65
2023/01/29 04:07:00;;;;;;;1999.90;999.90;;;;;;;0.07;100.00;95716.69;5059953;28;20203;-66
2023/01/29 04:09:35;;;;;;;1999.90;999.90;;;;;;;0.03;100.00;95710.41;5069317;28;20215;-66
2023/01/29 04:12:14;;;;;;;1999.90;999.90;;;;;;;0.03;100.00;95699.66;5068925;28;20209;-65
2023/01/29 04:14:40;;;;;;;1999.90;999.90;;;;;;;0.02;100.00;95698.09;5069240;28;20157;-67
2023/01/29 04:17:19;;;;;;;1999.90;999.90;;;;;;;0.06;100.00;95696.31;5068604;28;20191;-64
2023/01/29 04:19:46;;;;;;;1999.90;999.90;;;;;;;0.10;100.00;95699.91;5069005;28;20195;-65
2023/01/29 04:22:19;;;;;;;1999.90;999.90;;;;;;;0.12;100.00;95695.03;5068357;28;20199;-63
2023/01/29 04:24:46;;;;;;;1999.90;999.90;;;;;;;0.06;100.00;95699.00;5068447;28;20185;-63
2023/01/29 04:27:12;;;;;;;1999.90;999.90;;;;;;;0.08;100.00;95693.31;5068469;28;20236;-63
2023/01/29 04:30:13;;;;;;;1999.90;999.90;;;;;;;0.13;100.00;95693.91;5068662;28;20179;-63
2023/01/29 04:33:03;;;;;;;1999.90;999.90;;;;;;;0.19;100.00;95692.59;5051163;28;20194;-64
2023/01/29 04:35:52;;;;;;;1999.90;999.90;;;;;;;0.16;100.00;95687.09;5068727;28;20179;-64
2023/01/29 04:38:40;;;;;;;1999.90;999.90;;;;;;;0.20;100.00;95690.69;5068858;28;20230;-63
2023/01/29 04:41:29;;;;;;;1999.90;999.90;;;;;;;0.18;100.00;95700.97;5068538;28;20198;-64
2023/01/29 04:44:01;;;;;;;1999.90;999.90;;;;;;;0.12;100.00;95697.72;5068542;28;20187;-64
2023/01/29 04:46:26;;;;;;;1999.90;999.90;;;;;;;0.14;100.00;95695.47;5067848;28;20171;-64
2023/01/29 04:49:00;;;;;;;1999.90;999.90;;;;;;;0.16;100.00;95693.25;5067967;28;20177;-63
2023/01/29 04:51:42;;;;;;;1999.90;999.90;;;;;;;0.17;100.00;95699.41;5064503;28;20230;-64
2023/01/29 04:54:47;;;;;;;1999.90;999.90;;;;;;;0.16;100.00;95693.25;5065005;28;20173;-63
2023/01/29 04:57:31;;;;;;;1999.90;999.90;;;;;;;0.18;100.00;95691.00;5065331;28;20176;-65
2023/01/29 05:00:03;;;;;;;1999.90;999.90;;;;;;;0.18;100.00;95688.31;5064859;28;20183;-64
2023/01/29 05:02:32;;;;;;;1999.90;999.90;;;;;;;0.05;100.00;95686.72;5064380;28;20224;-64
2023/01/29 05:04:58;;;;;;;1999.90;999.90;;;;;;;0.08;100.00;95689.50;5064435;28;20170;-66
2023/01/29 05:07:26;;;;;;;1999.90;999.90;;;;;;;0.08;100.00;95674.53;5064367;28;20177;-64
2023/01/29 05:09:52;;;;;;;1999.90;999.90;;;;;;;0.14;100.00;95684.72;5064022;28;20175;-65
2023/01/29 05:12:18;;;;;;;1999.90;999.90;;;;;;;0.15;100.00;95686.31;5064747;28;20179;-63
2023/01/29 05:14:45;;;;;;;1999.90;999.90;;;;;;;0.15;100.00;95693.56;5064173;28;20194;-64
2023/01/29 05:17:16;;;;;;;1999.90;999.90;;;;;;;0.11;100.00;95701.50;5064213;28;20173;-64
2023/01/29 05:19:42;;;;;;;1999.90;999.90;;;;;;;0.10;100.00;95699.91;5064526;28;20264;-64
2023/01/29 05:22:11;;;;;;;1999.90;999.90;;;;;;;0.19;100.00;95697.16;5064009;28;20203;-64
2023/01/29 05:24:36;;;;;;;1999.90;999.90;;;;;;;0.13;100.00;95710.00;5063988;28;20247;-64
2023/01/29 05:29:47;;;;;;;1999.90;999.90;;;;;;;0.22;100.00;95761.75;5065022;28;20166;-64
2023/01/29 05:32:13;;;;;;;1999.90;999.90;;;;;;;0.30;100.00;95773.50;5063915;28;20202;-64
2023/01/29 05:34:38;;;;;;;1999.90;999.90;;;;;;;0.26;100.00;95810.97;5063916;28;20172;-64
2023/01/29 05:37:04;;;;;;;1999.90;999.90;;;;;;;0.26;100.00;95829.78;5064304;28;20184;-65
2023/01/29 05:39:29;;;;;;;1999.90;999.90;;;;;;;0.33;100.00;95854.19;5064319;28;20173;-66
2023/01/29 05:41:54;;;;;;;1999.90;999.90;;;;;;;0.38;100.00;95883.53;5064475;28;20280;-65
2023/01/29 05:44:20;;;;;;;1999.90;999.90;;;;;;;0.46;100.00;95914.91;5063814;28;20200;-65
2023/01/29 05:46:45;;;;;;;1999.90;999.90;;;;;;;0.45;100.00;95937.53;5064057;28;20176;-64
2023/01/29 05:49:11;;;;;;;1999.90;999.90;;;;;;;0.48;100.00;95947.63;5064198;28;20184;-63
2023/01/29 05:51:37;;;;;;;1999.90;999.90;;;;;;;0.48;100.00;95960.25;5063754;28;20230;-62
2023/01/29 05:54:03;;;;;;;1999.90;999.90;;;;;;;0.46;100.00;95970.53;5063711;28;20204;-67
2023/01/29 05:56:28;;;;;;;1999.90;999.90;;;;;;;0.35;100.00;95991.59;5064324;28;20177;-66
2023/01/29 05:58:54;;;;;;;1999.90;999.90;;;;;;;0.33;100.00;95999.22;5064115;28;20247;-66
2023/01/29 06:01:22;;;;;;;1999.90;999.90;;;;;;;0.27;100.00;95995.13;5063550;28;20203;-66
2023/01/29 06:03:48;;;;;;;1999.90;999.90;;;;;;;0.32;100.00;95997.63;5063811;28;20174;-66
2023/01/29 06:06:13;;;;;;;1999.90;999.90;;;;;;;0.33;100.00;96020.69;5064141;28;20266;-66
2023/01/29 06:08:39;;;;;;;1999.90;999.90;;;;;;;0.29;100.00;96002.84;5064103;28;20184;-67
2023/01/29 06:11:10;;;;;;;1999.90;999.90;;;;;;;0.27;100.00;95994.31;5063300;28;20179;-67
2023/01/29 06:13:36;;;;;;;1999.90;999.90;;;;;;;0.16;100.00;95977.78;5063627;28;20228;-67
2023/01/29 06:16:09;;;;;;;1999.90;999.90;;;;;;;0.14;100.00;95953.16;5063547;28;20176;-66
2023/01/29 06:18:35;;;;;;;1999.90;999.90;;;;;;;0.22;100.00;95938.94;5063449;28;20195;-66
2023/01/29 06:21:06;;;;;;;1999.90;999.90;;;;;;;0.29;100.00;95922.31;5065739;28;20213;-66
2023/01/29 06:23:32;;;;;;;1999.90;999.90;;;;;;;0.27;100.00;95909.19;5067927;28;20178;-66
2023/01/29 06:26:06;;;;;;;1999.90;999.90;;;;;;;0.24;100.00;95899.09;5067463;28;20175;-65
2023/01/29 06:28:31;;;;;;;1999.90;999.90;;;;;;;0.26;100.00;95910.31;5067601;28;20355;-67
2023/01/29 06:30:59;;;;;;;1999.90;999.90;;;;;;;0.26;100.00;95890.72;5067405;28;20241;-67
2023/01/29 06:33:25;;;;;;;1999.90;999.90;;;;;;;0.23;100.00;95886.00;5067242;28;20172;-67
2023/01/29 06:35:57;;;;;;;1999.90;999.90;;;;;;;0.14;100.00;95869.94;5067328;28;20218;-67
2023/01/29 06:38:23;;;;;;;1999.90;999.90;;;;;;;0.15;100.00;95858.13;5067256;28;20208;-68
2023/01/29 06:40:48;;;;;;;1999.90;999.90;;;;;;;0.14;100.00;95851.16;5067584;28;20179;-66
2023/01/29 06:43:14;;;;;;;1999.90;999.90;;;;;;;0.20;100.00;95844.50;5067630;28;20216;-66
2023/01/29 06:45:55;;;;;;;1999.90;999.90;;;;;;;0.13;100.00;95833.47;5067048;28;20173;-66
2023/01/29 06:48:22;;;;;;;1999.90;999.90;;;;;;;0.18;100.00;95817.16;5067760;28;20169;-65
2023/01/29 06:50:48;;;;;;;1999.90;999.90;;;;;;;0.22;100.00;95809.25;5066815;28;20217;-65
2023/01/29 06:53:14;;;;;;;1999.90;999.90;;;;;;;0.11;100.00;95808.88;5067365;28;20175;-65
2023/01/29 06:55:39;;;;;;;1999.90;999.90;;;;;;;0.12;100.00;95815.00;5066857;28;20183;-64
2023/01/29 06:58:21;;;;;;;1999.90;999.90;;;;;;;0.08;100.00;95803.34;5083250;28;20528;-65
2023/01/29 07:00:46;;;;;;;1999.90;999.90;;;;;;;0.12;100.00;95794.34;5081225;28;20229;-65
2023/01/29 07:03:11;;;;;;;1999.90;999.90;;;;;;;0.13;100.00;95790.53;5081152;28;20170;-64
2023/01/29 07:05:37;;;;;;;1999.90;999.90;;;;;;;0.12;100.00;95791.66;5081170;28;20250;-65
2023/01/29 07:08:02;;;;;;;1999.90;999.90;;;;;;;0.12;100.00;95788.97;5080923;28;20210;-64
2023/01/29 07:10:28;;;;;;;1999.90;999.90;;;;;;;0.17;100.00;95796.81;5081135;28;20187;-65
2023/01/29 07:12:53;;;;;;;1999.90;999.90;;;;;;;0.18;100.00;95802.97;5081631;28;20284;-64
2023/01/29 07:15:20;;;;;;;1999.90;999.90;;;;;;;0.19;100.00;95805.34;5081384;28;20167;-64
2023/01/29 07:17:55;;;;;;;1999.90;999.90;;;;;;;0.17;100.00;95802.19;5081419;28;20214;-64
2023/01/29 07:20:20;;;;;;;1999.90;999.90;;;;;;;0.22;100.00;95810.06;5080751;28;20186;-64
2023/01/29 07:22:46;;;;;;;1999.90;999.90;;;;;;;0.26;100.00;95816.34;5080476;28;20168;-64
2023/01/29 07:25:11;;;;;;;1999.90;999.90;;;;;;;0.20;100.00;95828.38;5080467;28;20167;-65
2023/01/29 07:27:36;;;;;;;1999.90;999.90;;;;;;;0.17;100.00;95858.56;5080449;28;20368;-63
2023/01/29 07:30:02;;;;;;;1999.90;999.90;;;;;;;0.23;100.00;95875.25;5080744;28;20167;-63
2023/01/29 07:32:28;;;;;;;1999.90;999.90;;;;;;;0.34;100.00;95888.00;5080956;28;20171;-64
2023/01/29 07:34:53;;;;;;;1999.90;999.90;;;;;;;0.36;100.00;95917.97;5081027;28;20192;-66
2023/01/29 07:37:18;;;;;;;1999.90;999.90;;;;;;;0.30;100.00;95930.03;5080469;28;20204;-63
2023/01/29 07:39:45;;;;;;;1999.90;999.90;;;;;;;0.34;100.00;95947.06;5080453;28;20176;-63
2023/01/29 07:42:10;;;;;;;1999.90;999.90;;;;;;;0.35;100.00;95970.13;5080897;28;20201;-63
2023/01/29 07:44:36;;;;;;;1999.90;999.90;;;;;;;0.36;100.00;95993.16;5080285;28;20166;-62
2023/01/29 07:47:01;;;;;;;1999.90;999.90;;;;;;;0.31;100.00;96011.34;5080787;28;20172;-63
2023/01/29 07:49:26;;;;;;;1999.90;999.90;;;;;;;0.29;100.00;96025.09;5080270;28;20166;-64
2023/01/29 07:51:52;;;;;;;1999.90;999.90;;;;;;;0.39;100.00;96024.75;5081008;28;20187;-66
2023/01/29 07:54:17;;;;;;;1999.90;999.90;;;;;;;0.37;100.00;96031.56;5080137;28;20266;-64
2023/01/29 07:56:42;;;;;;;1999.90;999.90;;;;;;;0.35;100.00;96034.56;5079754;28;20276;-65
2023/01/29 07:59:08;;;;;;;1999.90;999.90;;;;;;;0.30;100.00;96048.19;5079687;28;20167;-66
2023/01/29 08:01:33;;;;;;;1999.90;999.90;;;;;;;0.50;100.00;96058.19;5079705;28;20242;-64
2023/01/29 08:03:58;;;;;;;1999.90;999.90;;;;;;;0.58;100.00;96056.59;5079684;28;20220;-63
2023/01/29 08:06:24;;;;;;;1999.90;999.90;;;;;;;0.62;100.00;96055.59;5079903;28;20161;-64
2023/01/29 08:08:51;;;;;;;1999.90;999.90;;;;;;;0.80;100.00;96057.09;5071288;28;20165;-64
2023/01/29 08:11:16;;;;;;;1999.90;999.90;;;;;;;0.88;100.00;96064.34;5066837;28;20200;-64
2023/01/29 08:13:41;;;;;;;1999.90;999.90;;;;;;;0.88;100.00;96064.34;5066475;28;20168;-63
2023/01/29 08:16:07;;;;;;;1999.90;999.90;;;;;;;0.93;100.00;96072.22;5066367;28;20177;-63
2023/01/29 08:18:32;;;;;;;1999.90;999.90;;;;;;;0.91;100.00;96074.41;5066108;28;20162;-63
2023/01/29 08:20:59;;;;;;;1999.90;999.90;;;;;;;1.03;100.00;96071.84;5066271;28;20204;-63
2023/01/29 08:23:25;;;;;;;1999.90;999.90;;;;;;;1.12;100.00;96075.25;5066708;28;20164;-62
2023/01/29 08:25:50;;;;;;;1999.90;999.90;;;;;;;1.11;100.00;96087.13;5066774;28;20262;-63
2023/01/29 08:28:16;;;;;;;1999.90;999.90;;;;;;;1.08;100.00;96093.16;5065842;28;20253;-63
2023/01/29 08:30:42;;;;;;;1999.90;999.90;;;;;;;1.15;100.00;96085.38;5066717;28;20207;-63
2023/01/29 08:33:08;;;;;;;1999.90;999.90;;;;;;;1.30;100.00;96092.84;5066040;28;20168;-63
2023/01/29 08:35:33;;;;;;;1999.90;999.90;;;;;;;1.31;100.00;96099.81;5066472;28;20170;-61
2023/01/29 08:38:02;;;;;;;1999.90;999.90;;;;;;;1.38;100.00;96102.00;5065861;28;20193;-63
2023/01/29 08:40:30;;;;;;;1999.90;999.90;;;;;;;1.31;100.00;96109.78;5065951;28;20211;-61
2023/01/29 08:43:00;;;;;;;1999.90;999.90;;;;;;;1.34;100.00;96120.66;5066334;28;20172;-63
2023/01/29 08:45:26;;;;;;;1999.90;999.90;;;;;;;1.33;100.00;96119.09;5066330;28;20166;-62
2023/01/29 08:47:51;;;;;;;1999.90;999.90;;;;;;;1.40;100.00;96124.75;5065812;28;20173;-62
2023/01/29 08:50:17;;;;;;;1999.90;999.90;;;;;;;1.46;100.00;96134.19;5065807;28;20245;-63
2023/01/29 08:52:43;;;;;;;1999.90;999.90;;;;;;;1.50;100.00;96135.16;5065715;28;20166;-62
2023/01/29 08:55:09;;;;;;;1999.90;999.90;;;;;;;1.59;100.00;96143.94;5065876;28;20170;-62
2023/01/29 08:57:36;;;;;;;1999.90;999.90;;;;;;;1.57;100.00;96145.38;5065259;28;20222;-63
2023/01/29 09:00:01;;;;;;;1999.90;999.90;;;;;;;1.62;100.00;96139.78;5065550;28;20187;-63
2023/01/29 09:02:26;;;;;;;1999.90;999.90;;;;;;;1.68;100.00;96141.94;5066486;28;20170;-62
2023/01/29 09:04:52;;;;;;;1999.90;999.90;;;;;;;1.72;100.00;96142.91;5065446;28;20185;-64
2023/01/29 09:07:19;;;;;;;1999.90;999.90;;;;;;;1.71;100.00;96144.00;5065496;28;20280;-61
2023/01/29 09:09:44;;;;;;;1999.90;999.90;;;;;;;1.73;100.00;96152.53;5065088;28;20166;-62
2023/01/29 09:12:09;;;;;;;1999.90;999.90;;;;;;;1.88;100.00;96151.16;5065843;28;20183;-62
2023/01/29 09:14:35;;;;;;;1999.90;999.90;;;;;;;1.91;100.00;96151.28;5065658;28;20353;-62
2023/01/29 09:17:00;;;;;;;1999.90;999.90;;;;;;;1.82;100.00;96155.16;5065183;28;20235;-62
2023/01/29 09:19:25;;;;;;;1999.90;999.90;;;;;;;1.81;100.00;96167.84;5065330;28;20193;-62
2023/01/29 09:21:51;;;;;;;1999.90;999.90;;;;;;;1.83;100.00;96168.31;5065320;28;20170;-62
2023/01/29 09:24:16;;;;;;;1999.90;999.90;;;;;;;1.75;100.00;96177.22;5064982;28;20170;-62
2023/01/29 09:26:42;;;;;;;1999.90;999.90;;;;;;;1.84;100.00;96171.78;5065266;28;20172;-63
2023/01/29 09:29:09;;;;;;;1999.90;999.90;;;;;;;1.78;100.00;96173.88;5065464;28;20173;-62
2023/01/29 09:31:35;;;;;;;1999.90;999.90;;;;;;;1.85;100.00;96174.13;5064971;28;20166;-62
2023/01/29 09:34:00;;;;;;;1999.90;999.90;;;;;;;1.99;100.00;96180.06;5065105;28;20212;-62
2023/01/29 09:36:25;;;;;;;1999.90;999.90;;;;;;;1.96;100.00;96178.00;5064860;28;20199;-62
2023/01/29 09:38:51;;;;;;;1999.90;999.90;;;;;;;1.93;100.00;96175.97;5064938;28;20231;-63
2023/01/29 09:41:28;;;;;;;1999.90;999.90;;;;;;;2.00;100.00;96189.69;5064833;28;20195;-62
2023/01/29 09:44:12;;;;;;;1999.90;999.90;;;;;;;2.06;100.00;96199.16;5065293;28;20249;-64
2023/01/29 09:46:41;;;;;;;1999.90;999.90;;;;;;;2.09;100.00;96195.03;5064438;28;20177;-61
2023/01/29 09:49:13;;;;;;;1999.90;999.90;;;;;;;2.05;100.00;96207.56;5064601;28;20183;-63
2023/01/29 09:51:51;;;;;;;1999.90;999.90;;;;;;;2.06;100.00;96214.53;5065150;28;20173;-62
2023/01/29 09:54:29;;;;;;;1999.90;999.90;;;;;;;2.09;100.00;96211.97;5065061;28;20170;-63
2023/01/29 09:56:56;;;;;;;1999.90;999.90;;;;;;;2.07;100.00;96213.41;5064342;28;20527;-64
2023/01/29 09:59:24;;;;;;;1999.90;999.90;;;;;;;2.04;100.00;96209.47;5064366;28;20213;-63
2023/01/29 10:02:04;;;;;;;1999.90;999.90;;;;;;;1.91;100.00;96213.22;5064423;28;20459;-62
2023/01/29 10:04:39;;;;;;;1999.90;999.90;;;;;;;1.80;100.00;96209.34;5064744;28;20178;-61
2023/01/29 10:07:35;;;;;;;1999.90;999.90;;;;;;;1.65;100.00;96209.91;5064312;28;20207;-61
2023/01/29 10:10:16;;;;;;;1999.90;999.90;;;;;;;1.73;100.00;96195.59;5064972;28;20176;-62
2023/01/29 10:12:57;;;;;;;1999.90;999.90;;;;;;;1.48;100.00;96196.56;5064647;28;20178;-61
2023/01/29 10:15:29;;;;;;;1999.90;999.90;;;;;;;1.43;100.00;96194.06;5064386;28;20197;-61
2023/01/29 10:18:23;;;;;;;1999.90;999.90;;;;;;;1.48;100.00;96195.75;5064027;28;20206;-61
2023/01/29 10:21:14;;;;;;;1999.90;999.90;;;;;;;1.75;100.00;96192.59;5059489;28;20212;-63
2023/01/29 10:23:49;;;;;;;1999.90;999.90;;;;;;;1.84;100.00;96186.03;5064541;28;20173;-61
2023/01/29 10:26:15;;;;;;;1999.90;999.90;;;;;;;1.56;100.00;96176.88;5064043;28;20180;-62
2023/01/29 10:28:44;;;;;;;1999.90;999.90;;;;;;;1.90;100.00;96176.63;5063955;28;20174;-61
2023/01/29 10:31:17;;;;;;;1999.90;999.90;;;;;;;2.11;100.00;96177.41;5063403;28;20216;-62
2023/01/29 10:33:49;;;;;;;1999.90;999.90;;;;;;;2.19;100.00;96170.38;5063928;28;20194;-62
2023/01/29 10:36:21;;;;;;;1999.90;999.90;;;;;;;1.92;100.00;96169.00;5064178;28;20237;-63
2023/01/29 10:38:50;;;;;;;1999.90;999.90;;;;;;;2.11;100.00;96163.94;5064319;28;20174;-62
2023/01/29 10:41:46;;;;;;;1999.90;999.90;;;;;;;1.85;100.00;96157.97;5063665;28;20201;-62
2023/01/29 10:44:12;;;;;;;1999.90;999.90;;;;;;;2.15;100.00;96151.38;5063624;28;20170;-62
2023/01/29 10:46:49;;;;;;;1999.90;999.90;;;;;;;2.09;100.00;96152.72;5063765;28;20206;-61
2023/01/29 10:49:39;;;;;;;1999.90;999.90;;;;;;;2.19;100.00;96156.91;5063662;28;20189;-63
2023/01/29 10:52:18;;;;;;;1999.90;999.90;;;;;;;2.32;100.00;96162.00;5064170;28;20170;-62
2023/01/29 10:55:00;;;;;;;1999.90;999.90;;;;;;;2.16;100.00;96158.38;5064077;28;20342;-62
2023/01/29 10:57:36;;;;;;;1999.90;999.90;;;;;;;2.27;100.00;96158.75;5063332;28;20564;-61
2023/01/29 11:00:22;;;;;;;1999.90;999.90;;;;;;;2.00;100.00;96157.38;5064067;28;20450;-62
2023/01/29 11:02:50;;;;;;;1999.90;999.90;;;;;;;2.14;100.00;96154.41;5063477;28;20174;-62
2023/01/29 11:05:18;;;;;;;1999.90;999.90;;;;;;;2.01;100.00;96160.88;5063563;28;20181;-63
2023/01/29 11:07:44;;;;;;;1999.90;999.90;;;;;;;1.92;100.00;96152.06;5063997;28;20170;-64
2023/01/29 11:10:16;;;;;;;1999.90;999.90;;;;;;;1.70;100.00;96153.19;5063777;28;20236;-63
2023/01/29 11:12:43;;;;;;;1999.90;999.90;;;;;;;2.01;100.00;96150.09;5063890;28;20166;-63
2023/01/29 11:15:30;;;;;;;1999.90;999.90;;;;;;;1.98;100.00;96130.00;5063877;28;20173;-61
2023/01/29 11:18:20;;;;;;;1999.90;999.90;;;;;;;2.09;100.00;96133.88;5063358;28;20239;-61
2023/01/29 11:20:58;;;;;;;1999.90;999.90;;;;;;;2.12;100.00;96143.19;5063036;28;20269;-61
2023/01/29 11:23:30;;;;;;;1999.90;999.90;;;;;;;1.87;100.00;96139.59;5063808;28;20355;-61
2023/01/29 11:25:57;;;;;;;1999.90;999.90;;;;;;;1.77;100.00;96137.31;5064177;28;20178;-62
2023/01/29 11:28:41;;;;;;;1999.90;999.90;;;;;;;1.85;100.00;96132.97;5063194;28;20350;-62
2023/01/29 11:31:25;;;;;;;1999.90;999.90;;;;;;;2.04;100.00;96128.66;5063204;28;20176;-62
2023/01/29 11:34:12;;;;;;;1999.90;999.90;;;;;;;2.12;100.00;96130.50;5063277;28;20193;-63
2023/01/29 11:36:38;;;;;;;1999.90;999.90;;;;;;;2.15;100.00;96119.06;5063670;28;20206;-62